Impacts METAR Board
IDs:

KORD - Chicago/O'Hare Intl, IL, US

Updated at: 2200 UTC 21 May 2022
Potential Impact None Slight Moderate High
Time 21/10Z 21/11Z 21/12Z 21/13Z 21/14Z 21/15Z 21/16Z 21/17Z 21/18Z 21/19Z 21/20Z 21/21Z 21/22Z
Temp59 58 57 59 62 61 60 57 56 54 54 58 59
Dewpt55 55 53 56 53 53 54 52 52 49 51 52 53
Altim29.88 29.88 29.89 29.91 29.94 30.00 29.99 29.98 30.05 30.07 30.03 30.00 29.99
VIS10 10 10 10 10 10 10 8 5 5 10 10 10
CIG80 80 100 250 250 70 65 80 85 40 36 44 44
CoverOVCOVCOVCOVCOVCOVCOVCOVCOVCOVCOVCOVCOVC
FltCatVFRVFRVFRVFRVFRVFRVFRVFRMVFRMVFRVFRVFRVFR
WX-TSRA----------VCTS -RA-RARA BRRA BR------
WDir26003303000190320340210220290320360
WSpd4 0 4 3 0 5 8 9 6 6 5 5 5
WGst19 -- -- -- -- -- -- -- -- -- -- -- --
Raw hourly METARs
KORD 210951Z 26004G19KT 10SM -TSRA SCT050CB BKN080 OVC110 15/13 A2988 RMK AO2 RAB0856 SLP115 OCNL LTGICCG W-N TS W-N MOV E P0002 T01500128
KORD 211051Z 00000KT 10SM SCT065 BKN080 BKN150 OVC250 14/13 A2988 RMK AO2 RAE30 TSE13 SLP113 P0001 T01440128
KORD 211151Z 33004KT 10SM SCT060 BKN100 OVC200 14/12 A2989 RMK AO2 SLP117 60004 70050 T01390117 10156 20139 53001
KORD 211251Z 30003KT 10SM SCT110 OVC250 15/13 A2991 RMK AO2 SLP128 T01500133
KORD 211351Z 00000KT 10SM OVC250 17/12 A2994 RMK AO2 PRESRR SLP137 T01670117
KORD 211451Z 19005KT 10SM BKN070 BKN085 OVC100 16/12 A3000 RMK AO2 LTG DSNT SE SLP157 T01610117 53038
KORD 211558Z 32008KT 10SM VCTS -RA FEW045 BKN065 OVC090 16/12 A2999 RMK AO2 LTG DSNT W TSE52 P0000 T01560122
KORD 211651Z 34009KT 8SM -RA SCT060 BKN080 BKN100 OVC130 14/11 A2998 RMK AO2 TSE1552B08E36 SLP152 P0013 T01390111
KORD 211751Z 21006KT 5SM RA BR FEW065 BKN085 OVC100 13/11 A3005 RMK AO2 SLP176 P0006 60020 T01330111 10167 20128 53017
KORD 211851Z 22006KT 5SM RA BR BKN040 BKN075 BKN100 OVC250 12/09 A3007 RMK AO2 SLP182 P0010 T01220094
KORD 211951Z 29005KT 10SM SCT020 BKN036 OVC043 12/11 A3003 RMK AO2 WSHFT 1923 RAE46 SLP168 P0008 T01220106
KORD 212051Z 32005KT 10SM FEW010 SCT035 BKN044 OVC200 14/11 A3000 RMK AO2 SLP158 60018 T01440111 58017
KORD 212151Z 36005KT 10SM FEW010 SCT035 OVC044 15/12 A2999 RMK AO2 SLP154 T01500117



Page loaded:  22:24 UTC  |   03:24 PM Pacific  |   04:24 PM Mountain  |   05:24 PM Central  |   06:24 PM Eastern

 

ADVISORIES

FORECASTS

FORECASTS

OBSERVATIONS

USER TOOLS

ABOUT US